Schedule Details


Flight Number: CTN436
Departure: Zagreb / Pleso (LDZA) at 18:40
Arrival: Munich International Airport (EDDM) at 19:55
Route: PODET L603 KFT L173 MORED Q112 NAPSA

Weather Information
LDZA 192100Z 22002KT CAVOK 10/07 Q1017 NOSIG
EDDM 192120Z 12001KT 4500 1500N R08L/0150N R08R/0350V0900D PRFG NSC 08/07 Q1015 BECMG 0800 FG VV001
Schedule Frequency

Route Map